Time;durP1;ratioP1;P1;durP2;ratioP2;P2;SDS_P1;SDS_P2;PMS_P1;PMS_P2;Temp;Humidity;BMP_temperature;BMP_pressure;BME280_temperature;BME280_humidity;BME280_pressure;Samples;Min_cycle;Max_cycle;Signal;HPM_P1;HPM_P2
2023/10/22 00:00:08;;;;;;;3.25;1.10;;;;;;;14.63;61.18;98972.34;10345947;28;20058;-59
2023/10/22 00:05:10;;;;;;;1.85;1.10;;;;;;;14.50;61.24;98962.25;10348191;28;20461;-59
2023/10/22 00:10:11;;;;;;;2.33;0.95;;;;;;;14.43;60.71;98969.31;10343224;28;20077;-59
2023/10/22 00:15:14;;;;;;;2.80;0.82;;;;;;;14.53;61.20;98981.63;10346060;28;20076;-59
2023/10/22 00:20:16;;;;;;;2.53;0.88;;;;;;;14.32;61.17;98953.66;10346590;28;20069;-59
2023/10/22 00:25:17;;;;;;;2.63;1.02;;;;;;;14.45;61.47;98991.38;10344592;28;20049;-58
2023/10/22 00:30:19;;;;;;;2.10;0.75;;;;;;;14.36;61.50;98983.59;10345013;28;20196;-58
2023/10/22 00:35:20;;;;;;;3.72;1.08;;;;;;;14.34;61.41;98994.50;10345025;28;20069;-57
2023/10/22 00:40:22;;;;;;;2.38;0.60;;;;;;;14.30;61.38;99001.22;10344851;28;20235;-58
2023/10/22 00:45:24;;;;;;;5.70;0.85;;;;;;;14.19;61.53;98982.91;10345140;28;20227;-58
2023/10/22 00:50:25;;;;;;;2.65;0.60;;;;;;;14.20;61.74;98997.94;10341044;28;20061;-58
2023/10/22 00:55:27;;;;;;;2.65;0.90;;;;;;;14.20;61.94;98997.94;10343642;28;20221;-58
2023/10/22 01:00:28;;;;;;;1.70;0.63;;;;;;;14.18;62.01;99006.13;10341840;28;20738;-58
2023/10/22 01:05:30;;;;;;;1.35;0.52;;;;;;;14.17;61.82;99006.31;10339413;28;20485;-57
2023/10/22 01:10:32;;;;;;;3.67;0.70;;;;;;;14.12;62.16;99012.19;10343771;28;20086;-57
2023/10/22 01:15:34;;;;;;;1.80;0.65;;;;;;;14.00;62.38;99006.41;10340863;28;20057;-57
2023/10/22 01:20:36;;;;;;;1.55;0.60;;;;;;;14.01;62.50;99018.78;10344215;28;20053;-57
2023/10/22 01:25:37;;;;;;;2.60;1.08;;;;;;;14.00;62.66;99006.41;10343417;28;20317;-57
2023/10/22 01:30:39;;;;;;;2.45;0.68;;;;;;;13.99;62.73;99002.09;10342808;28;20401;-58
2023/10/22 01:35:40;;;;;;;3.53;1.58;;;;;;;13.93;62.81;99010.78;10347638;28;20823;-57
2023/10/22 01:40:42;;;;;;;5.28;0.95;;;;;;;13.97;62.98;99015.63;10345040;28;20048;-57
2023/10/22 01:45:44;;;;;;;1.77;0.80;;;;;;;13.78;63.03;98998.19;10336827;28;20058;-58
2023/10/22 01:50:46;;;;;;;2.20;0.52;;;;;;;13.83;63.40;99007.53;10338969;28;20050;-58
2023/10/22 01:55:47;;;;;;;3.67;0.68;;;;;;;13.82;63.48;99012.03;10346790;28;20377;-58
2023/10/22 02:00:49;;;;;;;2.38;0.57;;;;;;;13.72;63.53;98996.22;10345735;28;20046;-58
2023/10/22 02:05:51;;;;;;;2.58;0.65;;;;;;;13.77;63.77;99012.56;10340637;28;20053;-57
2023/10/22 02:10:53;;;;;;;2.15;0.90;;;;;;;13.76;63.58;99018.06;10345169;28;20208;-58
2023/10/22 02:15:55;;;;;;;3.13;0.75;;;;;;;13.82;63.87;99024.56;10343999;28;20056;-57
2023/10/22 02:21:00;;;;;;;1.25;0.60;;;;;;;13.82;64.06;99025.41;10339854;28;20059;-58
2023/10/22 02:26:04;;;;;;;4.13;1.20;;;;;;;13.71;64.21;99037.31;10346507;28;20502;-58
2023/10/22 02:31:05;;;;;;;4.90;0.75;;;;;;;13.75;64.93;99041.31;10342829;28;20817;-58
2023/10/22 02:36:07;;;;;;;1.92;0.57;;;;;;;13.76;64.97;99037.63;10344495;28;20206;-58
2023/10/22 02:41:09;;;;;;;3.95;0.82;;;;;;;13.73;64.95;99034.47;10348968;28;20054;-58
2023/10/22 02:46:10;;;;;;;2.00;0.60;;;;;;;13.61;64.99;99040.19;10353103;28;20567;-59
2023/10/22 02:51:12;;;;;;;2.65;1.10;;;;;;;13.58;65.18;99037.03;10348015;28;20173;-59
2023/10/22 02:56:13;;;;;;;1.25;0.50;;;;;;;13.53;65.48;99042.06;10354287;28;20462;-58
2023/10/22 03:01:17;;;;;;;3.80;1.33;;;;;;;13.54;65.12;99065.97;10356542;28;20172;-59
2023/10/22 03:06:18;;;;;;;1.63;0.77;;;;;;;13.52;65.69;99064.47;10351113;28;20746;-58
2023/10/22 03:11:20;;;;;;;2.70;0.70;;;;;;;13.46;65.85;99057.13;10348258;28;20058;-58
2023/10/22 03:16:22;;;;;;;2.67;0.60;;;;;;;13.43;66.09;99067.13;10359553;28;20086;-59
2023/10/22 03:21:28;;;;;;;3.33;0.65;;;;;;;13.38;66.30;99072.19;10352576;28;21165;-58
2023/10/22 03:26:30;;;;;;;2.08;0.77;;;;;;;13.28;66.88;99074.16;10357721;28;20057;-62
2023/10/22 03:31:31;;;;;;;2.88;0.90;;;;;;;13.25;67.52;99079.84;10352372;28;20046;-57
2023/10/22 03:36:34;;;;;;;3.53;0.65;;;;;;;13.32;67.60;99086.19;10346246;28;20230;-57
2023/10/22 03:41:36;;;;;;;2.28;0.55;;;;;;;13.29;67.43;99072.34;10355630;28;20045;-57
2023/10/22 03:46:38;;;;;;;5.05;0.88;;;;;;;13.35;67.72;99101.91;10352726;28;20298;-57
2023/10/22 03:51:39;;;;;;;3.78;0.80;;;;;;;13.34;67.45;99102.91;10354509;28;20817;-59
2023/10/22 03:56:41;;;;;;;1.58;0.55;;;;;;;13.34;67.65;99105.59;10353563;28;20107;-58
2023/10/22 04:01:42;;;;;;;5.35;1.00;;;;;;;13.25;68.09;99106.56;10349215;28;20057;-59
2023/10/22 04:06:44;;;;;;;4.03;1.25;;;;;;;13.22;68.18;99112.25;10355803;28;21241;-60
2023/10/22 04:11:45;;;;;;;3.63;1.17;;;;;;;13.18;68.86;99111.78;10350578;28;20057;-59
2023/10/22 04:16:49;;;;;;;3.58;1.05;;;;;;;13.26;68.53;99125.09;10354133;28;20118;-59
2023/10/22 04:21:51;;;;;;;5.18;0.93;;;;;;;13.15;69.06;99120.13;10354535;28;20041;-58
2023/10/22 04:26:53;;;;;;;2.42;0.52;;;;;;;13.23;69.32;99129.97;10352839;28;20196;-59
2023/10/22 04:31:55;;;;;;;4.63;1.23;;;;;;;13.13;69.75;99131.97;10350845;28;20057;-58
2023/10/22 04:36:56;;;;;;;4.13;0.68;;;;;;;13.11;69.48;99136.66;10355998;28;20080;-58
2023/10/22 04:41:58;;;;;;;2.25;0.90;;;;;;;12.99;70.41;99134.31;10357451;28;20109;-58
2023/10/22 04:46:59;;;;;;;3.28;0.80;;;;;;;12.98;70.32;99143.31;10347300;28;20144;-59
2023/10/22 04:52:01;;;;;;;1.75;0.70;;;;;;;12.97;70.51;99156.84;10347817;28;20052;-59
2023/10/22 04:57:03;;;;;;;3.50;0.88;;;;;;;12.96;70.77;99161.34;10351722;28;20140;-60
2023/10/22 05:02:04;;;;;;;3.20;1.00;;;;;;;12.95;71.18;99161.50;10357939;28;20208;-60
2023/10/22 05:07:06;;;;;;;3.53;1.02;;;;;;;12.99;71.08;99163.69;10359587;28;20064;-58
2023/10/22 05:12:08;;;;;;;5.55;0.95;;;;;;;13.01;70.94;99175.03;10356617;28;20053;-59
2023/10/22 05:17:10;;;;;;;4.13;0.95;;;;;;;13.12;70.90;99181.06;10352847;28;20388;-59
2023/10/22 05:22:12;;;;;;;3.72;0.98;;;;;;;13.01;71.28;99180.38;10341133;28;20052;-58
2023/10/22 05:27:15;;;;;;;3.45;1.00;;;;;;;13.14;70.92;99200.44;10346173;28;20065;-58
2023/10/22 05:32:17;;;;;;;6.57;1.15;;;;;;;13.09;71.14;99204.44;10354189;28;20356;-59
2023/10/22 05:37:19;;;;;;;4.72;0.93;;;;;;;13.13;71.20;99204.09;10342011;28;20053;-58
2023/10/22 05:42:21;;;;;;;5.57;1.50;;;;;;;13.08;71.48;99215.28;10344762;28;20049;-58
2023/10/22 05:47:22;;;;;;;4.18;0.98;;;;;;;13.07;71.74;99224.28;10338839;28;20118;-58
2023/10/22 05:52:26;;;;;;;2.80;0.98;;;;;;;13.05;71.84;99224.47;10340109;28;20103;-60
2023/10/22 05:57:28;;;;;;;5.17;1.00;;;;;;;12.97;72.24;99216.44;10338502;28;20145;-58
2023/10/22 06:02:30;;;;;;;3.25;0.70;;;;;;;13.03;72.07;99218.47;10337369;28;20083;-58
2023/10/22 06:07:31;;;;;;;4.47;1.17;;;;;;;13.08;72.14;99236.66;10334531;28;20458;-59
2023/10/22 06:12:33;;;;;;;4.60;1.20;;;;;;;13.05;72.03;99247.69;10336488;28;20386;-59
2023/10/22 06:17:34;;;;;;;5.40;1.70;;;;;;;12.91;73.11;99217.13;10349495;28;20692;-60
2023/10/22 06:22:36;;;;;;;2.72;0.70;;;;;;;13.01;73.04;99249.00;10342218;28;20657;-58
2023/10/22 06:27:38;;;;;;;5.90;1.20;;;;;;;13.03;72.86;99263.88;10345391;28;20053;-58
2023/10/22 06:32:40;;;;;;;5.30;1.00;;;;;;;13.11;72.64;99259.56;10342150;28;20058;-60
2023/10/22 06:37:42;;;;;;;5.40;1.33;;;;;;;13.16;72.50;99262.56;10346873;28;20181;-59
2023/10/22 06:42:43;;;;;;;6.50;1.08;;;;;;;13.08;72.79;99276.75;10344292;28;20746;-59
2023/10/22 06:47:48;;;;;;;4.85;1.33;;;;;;;13.05;72.79;99277.91;10347509;28;20433;-59
2023/10/22 06:52:50;;;;;;;3.53;1.15;;;;;;;13.19;73.19;99291.63;10345228;28;20613;-58
2023/10/22 06:57:52;;;;;;;5.15;0.88;;;;;;;13.31;73.54;99314.34;10344441;28;20052;-59
2023/10/22 07:02:53;;;;;;;4.15;1.40;;;;;;;13.40;72.80;99296.53;10341852;28;21563;-58
2023/10/22 07:07:55;;;;;;;4.60;1.00;;;;;;;13.37;73.21;99287.00;10337258;28;20064;-59
2023/10/22 07:12:57;;;;;;;3.92;0.95;;;;;;;13.41;72.34;99299.03;10339938;28;20380;-58
2023/10/22 07:17:58;;;;;;;5.88;1.33;;;;;;;13.41;72.38;99324.94;10342953;28;20227;-58
2023/10/22 07:23:01;;;;;;;5.32;1.35;;;;;;;13.39;72.90;99329.59;10337780;28;20119;-59
2023/10/22 07:28:03;;;;;;;3.35;0.88;;;;;;;13.37;72.93;99324.41;10337395;28;20054;-58
2023/10/22 07:33:04;;;;;;;6.15;1.10;;;;;;;13.46;72.92;99338.63;10334356;28;20144;-58
2023/10/22 07:38:06;;;;;;;2.70;1.10;;;;;;;13.45;73.13;99353.03;10337745;28;20113;-59
2023/10/22 07:43:08;;;;;;;5.85;1.13;;;;;;;13.46;73.21;99337.81;10340618;28;21719;-59
2023/10/22 07:48:10;;;;;;;7.35;1.40;;;;;;;13.56;72.96;99354.53;10340299;28;20382;-59
2023/10/22 07:53:11;;;;;;;4.40;1.25;;;;;;;13.58;73.05;99357.88;10337008;28;20053;-59
2023/10/22 07:58:13;;;;;;;5.07;1.88;;;;;;;13.60;72.88;99358.53;10341946;28;20099;-58
2023/10/22 08:03:15;;;;;;;4.75;1.10;;;;;;;13.64;72.92;99367.91;10345017;28;20060;-59
2023/10/22 08:08:16;;;;;;;7.65;1.83;;;;;;;13.78;73.08;99369.09;10340712;28;20045;-58
2023/10/22 08:13:18;;;;;;;4.28;1.10;;;;;;;13.74;72.63;99375.78;10340235;28;20137;-59
2023/10/22 08:18:20;;;;;;;2.92;1.08;;;;;;;13.79;72.48;99387.66;10343933;28;20770;-59
2023/10/22 08:23:22;;;;;;;5.15;1.60;;;;;;;13.84;72.53;99378.28;10338516;28;20567;-59
2023/10/22 08:28:24;;;;;;;4.35;1.20;;;;;;;13.89;71.98;99394.69;10339628;28;20122;-60
2023/10/22 08:33:26;;;;;;;2.78;1.00;;;;;;;13.82;72.54;99386.47;10336781;28;20060;-58
2023/10/22 08:38:27;;;;;;;5.25;1.10;;;;;;;13.95;72.40;99412.75;10336196;28;20053;-59
2023/10/22 08:43:32;;;;;;;6.55;1.77;;;;;;;13.96;72.79;99411.75;10330804;28;20102;-58
2023/10/22 08:48:35;;;;;;;4.50;1.05;;;;;;;13.92;72.83;99418.44;10332722;28;20445;-59
2023/10/22 08:53:37;;;;;;;4.60;1.27;;;;;;;13.95;73.25;99435.00;10336616;28;20126;-60
2023/10/22 08:58:38;;;;;;;4.22;1.17;;;;;;;13.89;74.00;99434.81;10340673;28;20622;-62
2023/10/22 09:03:41;;;;;;;4.10;1.30;;;;;;;13.93;74.45;99438.81;10339126;28;20196;-62
2023/10/22 09:08:45;;;;;;;5.05;0.90;;;;;;;13.89;74.56;99430.31;10338331;28;20219;-60
2023/10/22 09:13:48;;;;;;;4.45;1.30;;;;;;;13.96;74.54;99449.19;10330357;28;20120;-61
2023/10/22 09:18:49;;;;;;;6.57;1.67;;;;;;;13.76;76.48;99420.06;10330214;28;20056;-61
2023/10/22 09:24:04;;;;;;;3.05;0.85;;;;;;;13.93;76.88;99447.72;10336322;28;20066;-62
2023/10/22 09:29:07;;;;;;;9.25;1.42;;;;;;;13.97;76.75;99449.03;10338184;28;20095;-61
2023/10/22 09:34:26;;;;;;;5.60;1.55;;;;;;;14.08;76.11;99449.72;10330502;28;20200;-63
2023/10/22 09:39:38;;;;;;;7.82;1.38;;;;;;;14.17;75.36;99456.75;10335520;28;20403;-61
2023/10/22 09:44:46;;;;;;;4.50;1.55;;;;;;;14.21;74.39;99430.50;10332284;28;20150;-62
2023/10/22 09:49:56;;;;;;;4.40;1.00;;;;;;;14.29;73.64;99457.25;10329927;28;20061;-58
2023/10/22 09:55:00;;;;;;;9.05;2.60;;;;;;;14.12;73.66;99433.16;10304936;28;20095;-66
2023/10/22 10:00:08;;;;;;;3.25;1.10;;;;;;;14.47;72.91;99463.28;10285393;28;20057;-64
2023/10/22 10:05:12;;;;;;;4.50;1.17;;;;;;;14.59;72.67;99470.97;10285100;28;20573;-63
2023/10/22 10:10:14;;;;;;;5.72;1.75;;;;;;;14.61;73.77;99467.16;10285618;28;20073;-58
2023/10/22 10:15:38;;;;;;;10.55;1.90;;;;;;;14.55;72.47;99465.13;10283037;28;21122;-63
2023/10/22 10:20:41;;;;;;;4.57;0.97;;;;;;;14.54;71.67;99473.31;10283282;28;20053;-67
2023/10/22 10:25:43;;;;;;;5.93;1.05;;;;;;;14.59;71.67;99481.69;10283703;28;20052;-66
2023/10/22 10:30:44;;;;;;;6.43;1.35;;;;;;;14.71;71.17;99477.69;10290378;28;20187;-66
2023/10/22 10:35:48;;;;;;;7.18;1.50;;;;;;;14.81;72.46;99467.63;10279793;28;21438;-67
2023/10/22 10:40:53;;;;;;;5.60;1.30;;;;;;;14.72;71.14;99451.75;10287590;28;20076;-66
2023/10/22 10:46:24;;;;;;;6.30;1.40;;;;;;;14.94;70.75;99491.22;10285826;28;20055;-69
2023/10/22 10:51:27;;;;;;;4.88;1.05;;;;;;;14.98;70.75;99489.03;10295637;28;20062;-69
2023/10/22 10:56:49;;;;;;;4.00;0.77;;;;;;;15.00;70.14;99481.66;10294914;28;20133;-70
2023/10/22 11:02:07;;;;;;;5.60;1.30;;;;;;;14.96;69.11;99477.66;10300391;28;20151;-68
2023/10/22 11:07:10;;;;;;;4.50;1.35;;;;;;;14.99;69.38;99480.00;10295904;28;20060;-68
2023/10/22 11:12:28;;;;;;;3.85;0.95;;;;;;;14.98;68.65;99481.84;10298479;28;20146;-69
2023/10/22 11:17:30;;;;;;;4.03;1.50;;;;;;;14.98;69.05;99479.16;10297847;28;20338;-69
2023/10/22 11:22:32;;;;;;;5.60;0.82;;;;;;;15.03;69.52;99473.28;10298667;28;20156;-70
2023/10/22 11:27:38;;;;;;;3.25;0.95;;;;;;;15.15;68.78;99482.63;10301270;28;20072;-68
2023/10/22 11:32:47;;;;;;;4.57;1.10;;;;;;;15.18;68.72;99484.97;10287533;28;20136;-69
2023/10/22 11:37:49;;;;;;;6.97;1.30;;;;;;;15.11;68.59;99486.66;10286252;28;20145;-65
2023/10/22 11:42:51;;;;;;;5.32;1.10;;;;;;;15.09;68.88;99486.00;10292818;28;20057;-65
2023/10/22 11:48:12;;;;;;;7.80;1.10;;;;;;;15.17;68.84;99483.28;10291685;28;20304;-64
2023/10/22 11:53:15;;;;;;;5.72;1.40;;;;;;;15.23;69.28;99481.75;10294946;28;20644;-66
2023/10/22 11:58:25;;;;;;;5.70;1.63;;;;;;;15.22;68.82;99489.97;10296997;28;20497;-65
2023/10/22 12:03:27;;;;;;;2.47;1.25;;;;;;;15.24;68.51;99498.69;10296428;28;20061;-66
2023/10/22 12:08:29;;;;;;;5.07;1.20;;;;;;;15.23;68.91;99497.84;10284890;28;20080;-65
2023/10/22 12:13:30;;;;;;;4.93;1.10;;;;;;;15.30;69.11;99495.34;10294872;28;20065;-65
2023/10/22 12:18:32;;;;;;;3.90;1.20;;;;;;;15.35;68.80;99501.00;10293177;28;20213;-69
2023/10/22 12:23:34;;;;;;;7.78;1.88;;;;;;;15.45;70.04;99503.50;10293437;28;20690;-55
2023/10/22 12:28:50;;;;;;;4.80;1.33;;;;;;;15.50;69.40;99509.97;10285525;28;20194;-60
2023/10/22 12:33:51;;;;;;;6.97;1.75;;;;;;;15.49;68.55;99515.53;10291829;28;20473;-66
2023/10/22 12:38:54;;;;;;;7.18;1.70;;;;;;;15.45;68.23;99516.91;10287354;28;20612;-66
2023/10/22 12:43:55;;;;;;;2.50;1.00;;;;;;;15.42;68.34;99520.75;10305121;28;20080;-69
2023/10/22 12:48:57;;;;;;;4.80;1.25;;;;;;;15.39;67.21;99526.47;10318294;28;20174;-67
2023/10/22 12:54:00;;;;;;;8.20;2.17;;;;;;;15.28;66.73;99516.09;10308100;28;20217;-70
2023/10/22 12:59:01;;;;;;;6.25;1.33;;;;;;;15.42;66.16;99536.84;10306713;28;21963;-69
2023/10/22 13:04:03;;;;;;;2.25;1.10;;;;;;;15.48;66.05;99535.31;10324081;28;20525;-60
2023/10/22 13:09:05;;;;;;;4.20;1.58;;;;;;;15.52;66.30;99552.72;10331545;28;20103;-73
2023/10/22 13:14:07;;;;;;;3.13;1.10;;;;;;;15.45;66.19;99541.88;10330700;28;20054;-58
2023/10/22 13:19:08;;;;;;;5.25;1.65;;;;;;;15.52;66.10;99561.63;10335592;28;22656;-58
2023/10/22 13:24:10;;;;;;;6.15;1.83;;;;;;;15.33;66.44;99538.72;10329277;28;20049;-61
2023/10/22 13:29:12;;;;;;;3.92;1.52;;;;;;;15.54;65.85;99570.31;10337598;28;20054;-60
2023/10/22 13:34:14;;;;;;;6.70;1.50;;;;;;;15.59;66.23;99579.72;10325318;28;20093;-60
2023/10/22 13:39:16;;;;;;;3.67;1.50;;;;;;;15.61;66.28;99581.19;10290301;28;20070;-60
2023/10/22 13:44:17;;;;;;;3.35;1.50;;;;;;;15.65;66.67;99576.34;10277307;28;20360;-59
2023/10/22 13:49:19;;;;;;;8.88;2.53;;;;;;;15.67;66.89;99572.47;10288726;28;20636;-59
2023/10/22 13:54:20;;;;;;;6.47;1.63;;;;;;;15.68;66.39;99574.13;10280914;28;20685;-60
2023/10/22 13:59:22;;;;;;;5.25;1.40;;;;;;;15.71;66.10;99584.50;10282169;28;20057;-58
2023/10/22 14:04:23;;;;;;;4.88;1.83;;;;;;;15.72;65.69;99588.88;10283181;28;20659;-58
2023/10/22 14:09:26;;;;;;;4.18;1.77;;;;;;;15.73;66.22;99581.66;10287037;28;20622;-58
2023/10/22 14:14:28;;;;;;;5.07;1.70;;;;;;;15.72;65.85;99588.88;10281122;28;20141;-60
2023/10/22 14:19:29;;;;;;;4.78;1.30;;;;;;;15.65;65.90;99584.38;10286087;28;20677;-59
2023/10/22 14:24:33;;;;;;;4.38;1.23;;;;;;;15.66;66.21;99588.75;10290540;28;20061;-64
2023/10/22 14:29:35;;;;;;;6.78;1.85;;;;;;;15.63;66.37;99597.97;10298561;28;20848;-58
2023/10/22 14:34:36;;;;;;;3.83;1.45;;;;;;;15.67;66.48;99606.50;10299804;28;20192;-60
2023/10/22 14:39:38;;;;;;;6.13;1.77;;;;;;;15.60;66.43;99606.38;10301425;28;20065;-60
2023/10/22 14:44:40;;;;;;;3.20;1.20;;;;;;;15.63;66.42;99603.34;10298774;28;21270;-59
2023/10/22 14:49:42;;;;;;;3.80;1.45;;;;;;;15.63;66.65;99606.00;10299681;28;20057;-60
2023/10/22 14:54:43;;;;;;;6.18;1.17;;;;;;;15.55;66.71;99604.19;10302250;28;20627;-60
2023/10/22 14:59:45;;;;;;;3.35;1.25;;;;;;;15.63;66.67;99607.88;10303103;28;20061;-63
2023/10/22 15:04:46;;;;;;;3.50;0.98;;;;;;;15.56;66.96;99605.84;10309631;28;20191;-62
2023/10/22 15:09:48;;;;;;;4.68;1.38;;;;;;;15.52;67.23;99617.94;10302657;28;20131;-60
2023/10/22 15:14:50;;;;;;;4.80;0.90;;;;;;;15.50;67.25;99617.25;10302811;28;21740;-60
2023/10/22 15:19:52;;;;;;;5.40;1.70;;;;;;;15.48;67.52;99632.69;10308314;28;20403;-60
2023/10/22 15:24:53;;;;;;;5.15;0.93;;;;;;;15.47;68.09;99608.75;10310258;28;20175;-60
2023/10/22 15:29:55;;;;;;;4.20;1.05;;;;;;;15.47;67.59;99614.94;10313103;28;20494;-60
2023/10/22 15:34:56;;;;;;;3.65;1.05;;;;;;;15.58;67.49;99639.72;10308134;28;20654;-60
2023/10/22 15:39:58;;;;;;;6.35;2.13;;;;;;;15.63;68.24;99630.16;10304190;28;20730;-61
2023/10/22 15:45:03;;;;;;;3.75;0.80;;;;;;;15.63;67.91;99637.38;10313823;28;20056;-62
2023/10/22 15:50:05;;;;;;;3.85;1.05;;;;;;;15.56;68.20;99635.34;10317962;28;20740;-61
2023/10/22 15:55:07;;;;;;;4.43;1.20;;;;;;;15.55;68.60;99649.78;10308152;28;20445;-61
2023/10/22 16:00:10;;;;;;;4.35;0.95;;;;;;;15.38;68.54;99614.09;10308240;28;20060;-60
2023/10/22 16:05:12;;;;;;;3.90;0.80;;;;;;;15.50;68.43;99644.09;10315551;28;20474;-61
2023/10/22 16:10:14;;;;;;;4.60;1.23;;;;;;;15.50;68.96;99646.78;10303453;28;20057;-61
2023/10/22 16:15:17;;;;;;;4.00;1.08;;;;;;;15.50;69.45;99656.66;10308650;28;20049;-60
2023/10/22 16:20:19;;;;;;;1.85;0.63;;;;;;;15.53;69.46;99659.84;10307976;28;20049;-60
2023/10/22 16:25:21;;;;;;;2.00;0.70;;;;;;;15.51;69.57;99658.34;10308931;28;20183;-60
2023/10/22 16:30:23;;;;;;;3.10;0.90;;;;;;;15.49;69.64;99663.88;10331268;28;20593;-61
2023/10/22 16:35:25;;;;;;;2.88;1.00;;;;;;;15.46;70.04;99668.75;10345065;28;20049;-62
2023/10/22 16:40:27;;;;;;;2.60;1.50;;;;;;;15.45;70.18;99673.28;10338242;28;20053;-62
2023/10/22 16:45:28;;;;;;;3.35;0.90;;;;;;;15.39;69.87;99673.97;10340197;28;20061;-61
2023/10/22 16:50:30;;;;;;;2.80;0.93;;;;;;;15.51;70.38;99691.38;10336619;28;20064;-62
2023/10/22 16:55:34;;;;;;;4.78;0.70;;;;;;;15.49;70.08;99700.59;10334885;28;20054;-62
2023/10/22 17:00:36;;;;;;;2.78;1.02;;;;;;;15.37;69.76;99700.09;10327247;28;20364;-61
2023/10/22 17:05:38;;;;;;;5.22;1.35;;;;;;;15.33;70.46;99706.81;10337549;28;20054;-62
2023/10/22 17:10:40;;;;;;;3.38;1.15;;;;;;;15.15;70.38;99683.69;10343204;28;20045;-62
2023/10/22 17:15:42;;;;;;;2.17;0.85;;;;;;;15.30;70.74;99717.88;10342085;28;20072;-61
2023/10/22 17:20:44;;;;;;;3.72;0.95;;;;;;;15.08;70.91;99695.22;10343816;28;20068;-61
2023/10/22 17:25:49;;;;;;;1.45;0.57;;;;;;;15.27;70.95;99729.75;10337613;28;20060;-61
2023/10/22 17:30:51;;;;;;;3.50;1.20;;;;;;;15.24;71.03;99726.56;10337345;28;20049;-61
2023/10/22 17:35:58;;;;;;;5.28;0.82;;;;;;;15.24;71.51;99732.78;10337586;28;21380;-61
2023/10/22 17:41:00;;;;;;;2.95;0.88;;;;;;;15.25;71.67;99747.84;10337473;28;20084;-61
2023/10/22 17:46:02;;;;;;;3.20;0.70;;;;;;;15.22;71.66;99752.72;10335265;28;20048;-62
2023/10/22 17:51:04;;;;;;;2.97;0.85;;;;;;;15.24;72.11;99759.59;10340589;28;20059;-61
2023/10/22 17:56:10;;;;;;;3.88;1.30;;;;;;;15.20;72.03;99761.75;10334472;28;20144;-63
2023/10/22 18:01:11;;;;;;;3.47;1.00;;;;;;;15.34;72.30;99775.50;10336841;28;20064;-61
2023/10/22 18:06:14;;;;;;;5.38;1.52;;;;;;;15.29;72.16;99780.53;10351054;28;20478;-60
2023/10/22 18:11:19;;;;;;;3.08;1.10;;;;;;;15.32;72.39;99796.28;10336533;28;20054;-61
2023/10/22 18:16:20;;;;;;;5.30;1.40;;;;;;;15.06;72.86;99765.09;10335474;28;20053;-62
2023/10/22 18:21:22;;;;;;;3.35;1.08;;;;;;;15.27;72.76;99798.66;10336585;28;20048;-62
2023/10/22 18:26:25;;;;;;;4.20;1.10;;;;;;;15.28;73.25;99808.34;10334312;28;20453;-61
2023/10/22 18:31:26;;;;;;;3.08;0.98;;;;;;;15.31;72.78;99800.81;10329052;28;21688;-62
2023/10/22 18:36:28;;;;;;;3.10;0.98;;;;;;;15.26;73.35;99786.22;10331125;28;20124;-61
2023/10/22 18:41:30;;;;;;;3.55;1.00;;;;;;;15.33;73.03;99797.97;10330230;28;20068;-62
2023/10/22 18:46:33;;;;;;;2.97;0.85;;;;;;;15.28;73.28;99811.03;10327571;28;20056;-60
2023/10/22 18:51:35;;;;;;;3.03;0.57;;;;;;;15.13;73.38;99798.28;10328227;28;20668;-61
2023/10/22 18:56:37;;;;;;;3.25;1.08;;;;;;;15.16;73.83;99802.44;10335721;28;20053;-61
2023/10/22 19:01:38;;;;;;;2.92;1.17;;;;;;;15.11;73.89;99797.59;10325094;28;21422;-62
2023/10/22 19:06:40;;;;;;;2.47;0.90;;;;;;;15.18;73.47;99816.56;10331551;28;20103;-61
2023/10/22 19:11:42;;;;;;;2.85;0.85;;;;;;;15.08;74.14;99814.00;10334425;28;20217;-61
2023/10/22 19:16:44;;;;;;;4.53;1.17;;;;;;;15.14;74.36;99829.44;10333862;28;20053;-62
2023/10/22 19:21:46;;;;;;;3.63;1.30;;;;;;;15.14;74.36;99825.91;10336544;28;20135;-61
2023/10/22 19:26:48;;;;;;;2.38;0.90;;;;;;;15.16;74.34;99831.94;10336506;28;21036;-62
2023/10/22 19:31:50;;;;;;;5.68;1.77;;;;;;;15.12;74.56;99836.81;10343769;28;20689;-61
2023/10/22 19:36:51;;;;;;;1.83;1.13;;;;;;;15.10;74.85;99829.91;10348799;28;20057;-62
2023/10/22 19:41:53;;;;;;;3.58;1.60;;;;;;;15.16;75.17;99840.84;10334872;28;20061;-61
2023/10/22 19:46:54;;;;;;;6.28;2.28;;;;;;;15.17;76.02;99842.50;10333791;28;20069;-62
2023/10/22 19:51:56;;;;;;;4.88;1.80;;;;;;;15.16;76.14;99856.94;10339453;28;20592;-62
2023/10/22 19:56:59;;;;;;;6.07;2.03;;;;;;;15.02;76.47;99836.09;10340332;28;20140;-62
2023/10/22 20:02:01;;;;;;;8.43;2.63;;;;;;;15.19;76.25;99859.28;10339254;28;20540;-62
2023/10/22 20:07:18;;;;;;;3.15;2.00;;;;;;;15.15;75.90;99855.25;10343889;28;20102;-62
2023/10/22 20:12:20;;;;;;;5.53;2.05;;;;;;;15.12;76.67;99871.66;10333228;28;20562;-62
2023/10/22 20:17:22;;;;;;;4.00;2.40;;;;;;;15.10;76.04;99868.31;10337043;28;20050;-61
2023/10/22 20:22:24;;;;;;;4.25;1.70;;;;;;;15.03;75.84;99862.75;10334035;28;20103;-62
2023/10/22 20:27:25;;;;;;;4.68;1.50;;;;;;;15.04;76.35;99871.59;10333216;28;20163;-62
2023/10/22 20:32:27;;;;;;;5.45;2.05;;;;;;;15.02;76.19;99870.94;10334498;28;20057;-62
2023/10/22 20:37:28;;;;;;;3.60;1.52;;;;;;;14.98;76.49;99880.28;10337982;28;20060;-61
2023/10/22 20:42:29;;;;;;;5.05;2.10;;;;;;;14.98;76.93;99875.81;10339380;28;20057;-62
2023/10/22 20:47:31;;;;;;;6.40;2.10;;;;;;;14.97;76.93;99882.16;10337702;28;20072;-61
2023/10/22 20:52:33;;;;;;;4.88;2.05;;;;;;;14.98;77.40;99881.16;10334067;28;20064;-61
2023/10/22 20:57:37;;;;;;;5.53;2.63;;;;;;;14.99;77.72;99884.66;10338551;28;20068;-63
2023/10/22 21:02:39;;;;;;;4.65;2.03;;;;;;;14.95;77.94;99886.84;10330921;28;20752;-63
2023/10/22 21:07:41;;;;;;;6.55;2.50;;;;;;;14.83;77.64;99872.88;10349126;28;20100;-63
2023/10/22 21:12:44;;;;;;;5.15;2.00;;;;;;;14.85;78.04;99881.59;10342854;28;20211;-64
2023/10/22 21:17:48;;;;;;;4.35;2.08;;;;;;;14.76;77.50;99876.38;10347993;28;20077;-63
2023/10/22 21:22:53;;;;;;;4.20;1.65;;;;;;;14.81;77.65;99884.75;10349226;28;20061;-63
2023/10/22 21:27:54;;;;;;;5.03;2.10;;;;;;;14.77;78.17;99884.25;10346404;28;20453;-62
2023/10/22 21:32:56;;;;;;;4.00;1.50;;;;;;;14.76;78.29;99897.81;10341625;28;20053;-63
2023/10/22 21:37:58;;;;;;;3.78;1.65;;;;;;;14.61;78.66;99876.13;10345720;28;20505;-63
2023/10/22 21:43:00;;;;;;;4.57;2.08;;;;;;;14.67;78.35;99886.19;10333500;28;20062;-61
2023/10/22 21:48:02;;;;;;;4.93;2.20;;;;;;;14.61;78.26;99889.50;10354073;28;20545;-63
2023/10/22 21:53:03;;;;;;;4.25;1.75;;;;;;;14.52;78.52;99874.34;10348177;28;20057;-63
2023/10/22 21:58:05;;;;;;;4.05;2.30;;;;;;;14.55;78.54;99884.75;10346689;28;20040;-63
2023/10/22 22:03:06;;;;;;;5.60;3.13;;;;;;;14.50;79.03;99880.72;10348679;28;20054;-62
2023/10/22 22:08:08;;;;;;;6.20;2.85;;;;;;;14.45;78.90;99891.03;10346288;28;20056;-63
2023/10/22 22:13:10;;;;;;;5.82;2.70;;;;;;;14.42;79.60;99890.53;10343515;28;20144;-63
2023/10/22 22:18:12;;;;;;;5.65;3.03;;;;;;;14.36;79.80;99892.00;10349617;28;20409;-62
2023/10/22 22:23:13;;;;;;;6.72;3.03;;;;;;;14.31;79.56;99894.31;10337367;28;20053;-63
2023/10/22 22:28:15;;;;;;;5.50;2.70;;;;;;;14.20;79.70;99870.47;10348479;28;20041;-63
2023/10/22 22:33:17;;;;;;;6.05;3.05;;;;;;;14.25;79.39;99878.88;10345350;28;20057;-63
2023/10/22 22:38:18;;;;;;;5.45;2.67;;;;;;;14.20;79.70;99875.81;10341917;28;20053;-62
2023/10/22 22:43:21;;;;;;;9.43;3.20;;;;;;;14.14;80.13;99875.44;10340380;28;20295;-61
2023/10/22 22:48:22;;;;;;;6.32;2.80;;;;;;;14.05;79.93;99863.00;10342455;28;20268;-63
2023/10/22 22:53:24;;;;;;;5.22;2.42;;;;;;;14.04;80.31;99869.34;10341871;28;20042;-63
2023/10/22 22:58:26;;;;;;;6.45;2.47;;;;;;;13.83;80.26;99853.63;10347090;28;20253;-63
2023/10/22 23:03:30;;;;;;;4.15;2.13;;;;;;;14.04;80.30;99884.56;10346028;28;20411;-63
2023/10/22 23:08:31;;;;;;;4.25;2.38;;;;;;;13.98;79.84;99894.06;10353535;28;20045;-63
2023/10/22 23:13:34;;;;;;;6.70;2.42;;;;;;;13.97;80.04;99903.06;10344021;28;20061;-62
2023/10/22 23:18:37;;;;;;;5.40;2.80;;;;;;;13.93;80.58;99901.69;10353310;28;20057;-62
2023/10/22 23:23:39;;;;;;;10.02;4.93;;;;;;;13.90;80.53;99899.31;10342245;28;20613;-63